SOHO CELIAS Proton Monitor
Solar Wind Parameters for Carrington Rotation 2039 (hour averages)


Listed Parameters:

Measurement time (Year, Month, Day of Month, Day of Year, Hour, Minute, Second)
Proton speed [km/sec]
Proton density [protons per cubic centimeter]
Most probable proton thermal speed [km/sec]
Arrival direction [degrees from north-south, with + meaning FROM the south).
(SPEED=-1 means NOT AVAILABLE)

SOHO spacecraft coordinates: based on SOHO PRE orbit files
GSE X, Y, Z [Earth Radii] 1 RE == 6378 km
Heliocentric Range [106 km],
Heliographic Latitude and Longitude [deg].

FORMAT=(1X,I2,1X,I3,1X,I2,1X,I2,1X,I2,F7.1,3F7.2,3X,3F7.1,F7.1,F7.2,F8.2)



                              CELIAS/MTOF/PM DATA                      SOHO ORBIT DATA              
 InSitu_Start__Time       [km/s]  [cm-3] [km/s]  [deg]      [Re]   [Re]   [Re]  [Mkm]  [deg]  [deg]
 YY MON DY DOY:HH:MM:SS   SPEED     Np     Vth    N/S      GSE_X  GSE_Y  GSE_Z  RANGE  HGLAT  HGLONG
 06 JAN 18  18:23:00:00     526    1.9      38    1.6      211.3  101.2   -0.3  145.8   -4.9   359.0
 06 JAN 19  19:00:00:00     496    2.3      37    1.1      211.4  101.2   -0.3  145.8   -4.9   358.5
 06 JAN 19  19:01:00:00     468    3.1      30    0.1      211.5  101.2   -0.3  145.8   -4.9   357.9
 06 JAN 19  19:02:00:00     460    4.0      27    1.2      211.5  101.2   -0.4  145.8   -4.9   357.4
 06 JAN 19  19:03:00:00     453    3.0      28    2.0      211.6  101.2   -0.4  145.8   -4.9   356.8
 06 JAN 19  19:04:00:00     452    3.1      27   -0.2      211.6  101.2   -0.4  145.8   -4.9   356.3
 06 JAN 19  19:05:00:00     447    3.0      29   -0.1      211.7  101.3   -0.4  145.8   -4.9   355.7
 06 JAN 19  19:06:00:00     453    4.3      29    2.1      211.7  101.3   -0.5  145.8   -4.9   355.2
 06 JAN 19  19:07:00:00     450    4.4      28   -1.2      211.8  101.3   -0.5  145.8   -4.9   354.6
 06 JAN 19  19:08:00:00     437    3.6      30   -2.2      211.8  101.3   -0.5  145.8   -4.9   354.1
 06 JAN 19  19:09:00:00     434    3.0      30   -0.9      211.9  101.3   -0.6  145.8   -5.0   353.5
 06 JAN 19  19:10:00:00     452    4.2      28   -1.2      211.9  101.3   -0.6  145.8   -5.0   353.0
 06 JAN 19  19:11:00:00     458    2.9      27    0.4      212.0  101.4   -0.6  145.8   -5.0   352.4
 06 JAN 19  19:12:00:00     457    3.1      26    0.3      212.0  101.4   -0.6  145.8   -5.0   351.9
 06 JAN 19  19:13:00:00     454    3.4      25    0.6      212.1  101.4   -0.7  145.8   -5.0   351.3
 06 JAN 19  19:14:00:00     451    3.8      29    1.0      212.1  101.4   -0.7  145.8   -5.0   350.8
 06 JAN 19  19:15:00:00     451    3.3      23    0.7      212.2  101.4   -0.7  145.8   -5.0   350.2
 06 JAN 19  19:16:00:00     449    2.8      25   -1.2      212.2  101.4   -0.8  145.8   -5.0   349.7
 06 JAN 19  19:17:00:00     448    2.8      26   -3.0      212.3  101.4   -0.8  145.8   -5.0   349.1
 06 JAN 19  19:18:00:00     449    3.2      26   -4.5      212.4  101.5   -0.8  145.8   -5.0   348.6
 06 JAN 19  19:19:00:00     452    3.2      25   -3.0      212.4  101.5   -0.8  145.8   -5.0   348.0
 06 JAN 19  19:20:00:00     452    3.1      25   -3.8      212.5  101.5   -0.9  145.8   -5.0   347.5
 06 JAN 19  19:21:00:00     464    2.8      29   -1.1      212.5  101.5   -0.9  145.8   -5.0   346.9
 06 JAN 19  19:22:00:00     462    3.1      29   -1.4      212.6  101.5   -0.9  145.8   -5.0   346.4
 06 JAN 19  19:23:00:00     465    3.2      30   -1.8      212.6  101.5   -0.9  145.8   -5.0   345.8
 06 JAN 20  20:00:00:00     462    3.0      30   -0.8      212.7  101.5   -1.0  145.8   -5.0   345.3
 06 JAN 20  20:01:00:00     459    3.3      28   -0.5      212.7  101.6   -1.0  145.8   -5.0   344.7
 06 JAN 20  20:02:00:00     458    3.1      29   -1.3      212.8  101.6   -1.0  145.8   -5.0   344.2
 06 JAN 20  20:03:00:00     455    3.5      27   -1.8      212.8  101.6   -1.1  145.8   -5.0   343.6
 06 JAN 20  20:04:00:00     456    4.3      26    0.0      212.9  101.6   -1.1  145.8   -5.0   343.1
 06 JAN 20  20:05:00:00     454    4.3      25   -1.0      212.9  101.6   -1.1  145.8   -5.0   342.5
 06 JAN 20  20:06:00:00     453    4.2      26   -1.6      213.0  101.6   -1.1  145.8   -5.0   342.0
 06 JAN 20  20:07:00:00     454    4.2      26   -1.1      213.1  101.6   -1.2  145.8   -5.0   341.4
 06 JAN 20  20:08:00:00     456    4.1      27   -0.5      213.1  101.6   -1.2  145.8   -5.0   340.9
 06 JAN 20  20:09:00:00     454    4.1      27   -0.5      213.2  101.7   -1.2  145.8   -5.0   340.3
 06 JAN 20  20:10:00:00     455    4.5      28   -0.3      213.2  101.7   -1.3  145.8   -5.1   339.8
 06 JAN 20  20:11:00:00     451    4.3      26   -0.1      213.3  101.7   -1.3  145.8   -5.1   339.2
 06 JAN 20  20:12:00:00     448    4.4      26   -1.9      213.3  101.7   -1.3  145.8   -5.1   338.7
 06 JAN 20  20:13:00:00     444    4.1      29   -1.3      213.4  101.7   -1.3  145.8   -5.1   338.1
 06 JAN 20  20:14:00:00     444    4.5      29   -1.9      213.4  101.7   -1.4  145.8   -5.1   337.6
 06 JAN 20  20:15:00:00     444    4.1      29   -1.5      213.5  101.7   -1.4  145.9   -5.1   337.0
 06 JAN 20  20:16:00:00     447    5.1      26   -2.8      213.5  101.7   -1.4  145.9   -5.1   336.5
 06 JAN 20  20:17:00:00     449    4.5      29   -1.2      213.6  101.7   -1.5  145.9   -5.1   335.9
 06 JAN 20  20:18:00:00     451    4.9      28   -1.6      213.7  101.8   -1.5  145.9   -5.1   335.4
 06 JAN 20  20:19:00:00     450    5.4      28   -1.6      213.7  101.8   -1.5  145.9   -5.1   334.8
 06 JAN 20  20:20:00:00     446    5.8      28   -2.2      213.8  101.8   -1.5  145.9   -5.1   334.3
 06 JAN 20  20:21:00:00     441    4.7      29   -1.2      213.8  101.8   -1.6  145.9   -5.1   333.7
 06 JAN 20  20:22:00:00     438    5.0      29   -1.0      213.9  101.8   -1.6  145.9   -5.1   333.2
 06 JAN 20  20:23:00:00     440    4.1      27   -0.9      213.9  101.8   -1.6  145.9   -5.1   332.6
 06 JAN 21  21:00:00:00     441    3.1      27   -0.6      214.0  101.8   -1.7  145.9   -5.1   332.1
 06 JAN 21  21:01:00:00     440    2.8      27   -0.8      214.0  101.8   -1.7  145.9   -5.1   331.5
 06 JAN 21  21:02:00:00     431    3.5      28   -1.5      214.1  101.8   -1.7  145.9   -5.1   331.0
 06 JAN 21  21:03:00:00     436    3.3      26   -1.5      214.2  101.8   -1.7  145.9   -5.1   330.4
 06 JAN 21  21:04:00:00     435    3.1      26   -1.8      214.2  101.8   -1.8  145.9   -5.1   329.9
 06 JAN 21  21:05:00:00     427    2.3      29   -2.0      214.3  101.9   -1.8  145.9   -5.1   329.3
 06 JAN 21  21:06:00:00     433    2.0      27   -1.7      214.3  101.9   -1.8  145.9   -5.1   328.8
 06 JAN 21  21:07:00:00     440    2.2      23   -2.3      214.4  101.9   -1.8  145.9   -5.1   328.2
 06 JAN 21  21:08:00:00     444    2.0      22   -1.6      214.4  101.9   -1.9  145.9   -5.1   327.7
 06 JAN 21  21:09:00:00     440    2.1      26   -2.0      214.5  101.9   -1.9  145.9   -5.1   327.1
 06 JAN 21  21:10:00:00     440    1.6      28   -1.3      214.5  101.9   -1.9  145.9   -5.1   326.6
 06 JAN 21  21:11:00:00     443    1.5      26   -0.9      214.6  101.9   -2.0  145.9   -5.1   326.0
 06 JAN 21  21:12:00:00     427    1.8      31    0.1      214.7  101.9   -2.0  145.9   -5.2   325.5
 06 JAN 21  21:13:00:00     416    2.0      30    0.9      214.7  101.9   -2.0  145.9   -5.2   324.9
 06 JAN 21  21:14:00:00     400    1.7      30   -0.2      214.8  101.9   -2.0  145.9   -5.2   324.4
 06 JAN 21  21:15:00:00     403    1.7      28   -0.2      214.8  101.9   -2.1  145.9   -5.2   323.8
 06 JAN 21  21:16:00:00     412    1.2      32   -0.5      214.9  101.9   -2.1  145.9   -5.2   323.3
 06 JAN 21  21:17:00:00     424    1.1      31   -2.0      214.9  101.9   -2.1  145.9   -5.2   322.7
 06 JAN 21  21:18:00:00     403    1.0      30   -0.4      215.0  101.9   -2.2  145.9   -5.2   322.2
 06 JAN 21  21:19:00:00     377    1.7      24    0.3      215.1  101.9   -2.2  145.9   -5.2   321.6
 06 JAN 21  21:20:00:00     366    2.1      22    0.8      215.1  101.9   -2.2  145.9   -5.2   321.1
 06 JAN 21  21:21:00:00     379    1.7      25    0.8      215.2  102.0   -2.2  145.9   -5.2   320.5
 06 JAN 21  21:22:00:00     359    2.7      21    0.5      215.2  102.0   -2.3  145.9   -5.2   320.0
 06 JAN 21  21:23:00:00     356    3.6      21    1.7      215.3  102.0   -2.3  145.9   -5.2   319.4
 06 JAN 22  22:00:00:00     364    3.9      22    3.2      215.3  102.0   -2.3  145.9   -5.2   318.9
 06 JAN 22  22:01:00:00     360    4.0      21    2.5      215.4  102.0   -2.4  145.9   -5.2   318.3
 06 JAN 22  22:02:00:00     365    4.2      22    1.4      215.4  102.0   -2.4  145.9   -5.2   317.8
 06 JAN 22  22:03:00:00     358    4.2      21    0.3      215.5  102.0   -2.4  145.9   -5.2   317.2
 06 JAN 22  22:04:00:00     353    4.0      20    0.1      215.6  102.0   -2.4  145.9   -5.2   316.7
 06 JAN 22  22:05:00:00     357    4.1      21    0.3      215.6  102.0   -2.5  145.9   -5.2   316.1
 06 JAN 22  22:06:00:00     360    4.1      21    0.1      215.7  102.0   -2.5  145.9   -5.2   315.6
 06 JAN 22  22:07:00:00     355    4.4      21    0.2      215.7  102.0   -2.5  145.9   -5.2   315.0
 06 JAN 22  22:08:00:00     352    4.9      20    0.0      215.8  102.0   -2.6  145.9   -5.2   314.5
 06 JAN 22  22:09:00:00     353    5.0      20   -0.4      215.8  102.0   -2.6  145.9   -5.2   313.9
 06 JAN 22  22:10:00:00     351    5.3      18    0.2      215.9  102.0   -2.6  145.9   -5.2   313.4
 06 JAN 22  22:11:00:00     350    5.1      18   -1.4      216.0  102.0   -2.6  145.9   -5.2   312.8
 06 JAN 22  22:12:00:00     359    4.6      21   -0.6      216.0  102.0   -2.7  145.9   -5.2   312.3
 06 JAN 22  22:13:00:00     352    4.5      20   -0.2      216.1  102.0   -2.7  145.9   -5.2   311.7
 06 JAN 22  22:14:00:00     350    4.3      20    0.4      216.1  102.0   -2.7  145.9   -5.3   311.2
 06 JAN 22  22:15:00:00     352    4.9      20    0.8      216.2  102.0   -2.7  145.9   -5.3   310.6
 06 JAN 22  22:16:00:00     357    4.4      21    0.6      216.2  102.0   -2.8  145.9   -5.3   310.1
 06 JAN 22  22:17:00:00     355    4.2      21    1.5      216.3  102.0   -2.8  145.9   -5.3   309.5
 06 JAN 22  22:18:00:00     354    4.4      21    1.5      216.4  102.0   -2.8  145.9   -5.3   309.0
 06 JAN 22  22:19:00:00     355    4.7      21    1.5      216.4  102.0   -2.9  145.9   -5.3   308.4
 06 JAN 22  22:20:00:00     351    5.6      19    0.7      216.5  102.0   -2.9  145.9   -5.3   307.9
 06 JAN 22  22:21:00:00     353    7.1      20    1.1      216.5  102.0   -2.9  145.9   -5.3   307.3
 06 JAN 22  22:22:00:00     365   10.0      24    1.9      216.6  102.0   -2.9  145.9   -5.3   306.8
 06 JAN 22  22:23:00:00     359    8.0      22   -0.3      216.7  102.0   -3.0  145.9   -5.3   306.2
 06 JAN 23  23:00:00:00     363   10.2      23   -1.4      216.7  102.0   -3.0  145.9   -5.3   305.7
 06 JAN 23  23:01:00:00     370   14.3      23   -2.5      216.8  102.0   -3.0  145.9   -5.3   305.1
 06 JAN 23  23:02:00:00     373   13.5      23   -2.4      216.8  102.0   -3.1  145.9   -5.3   304.6
 06 JAN 23  23:03:00:00     366   16.0      25   -0.8      216.9  102.0   -3.1  145.9   -5.3   304.0
 06 JAN 23  23:04:00:00     369   19.2      24   -1.2      216.9  102.0   -3.1  145.9   -5.3   303.5
 06 JAN 23  23:05:00:00     372   11.2      27   -3.4      217.0  102.0   -3.1  145.9   -5.3   302.9
 06 JAN 23  23:06:00:00     394    7.3      30   -4.1      217.1  102.0   -3.2  145.9   -5.3   302.4
 06 JAN 23  23:07:00:00     448    6.2      37   -1.0      217.1  102.0   -3.2  145.9   -5.3   301.8
 06 JAN 23  23:08:00:00     513    5.4      45    2.0      217.2  102.0   -3.2  145.9   -5.3   301.3
 06 JAN 23  23:09:00:00     548    5.8      47    3.5      217.2  102.0   -3.2  145.9   -5.3   300.7
 06 JAN 23  23:10:00:00     614    4.4      56    3.2      217.3  102.0   -3.3  145.9   -5.3   300.2
 06 JAN 23  23:11:00:00     627    4.5      55    2.7      217.3  102.0   -3.3  145.9   -5.3   299.6
 06 JAN 23  23:12:00:00     602    5.6      51    0.5      217.4  102.0   -3.3  145.9   -5.3   299.1
 06 JAN 23  23:13:00:00     610    5.0      51    2.1      217.5  102.0   -3.4  145.9   -5.3   298.5
 06 JAN 23  23:14:00:00     608    4.8      50    0.3      217.5  102.0   -3.4  145.9   -5.3   298.0
 06 JAN 23  23:15:00:00     601    4.7      49    2.3      217.6  102.0   -3.4  145.9   -5.3   297.4
 06 JAN 23  23:16:00:00     606    3.8      50    0.5      217.6  102.0   -3.4  145.9   -5.3   296.9
 06 JAN 23  23:17:00:00     592    4.3      48    2.2      217.7  102.0   -3.5  145.9   -5.4   296.3
 06 JAN 23  23:18:00:00     593    3.0      48    1.0      217.8  102.0   -3.5  145.9   -5.4   295.8
 06 JAN 23  23:19:00:00     573    3.1      43    1.1      217.8  102.0   -3.5  145.9   -5.4   295.2
 06 JAN 23  23:20:00:00     579    2.1      44    1.0      217.9  102.0   -3.6  145.9   -5.4   294.7
 06 JAN 23  23:21:00:00     576    2.3      40    2.2      217.9  102.0   -3.6  145.9   -5.4   294.1
 06 JAN 23  23:22:00:00     606    2.5      47    0.7      218.0  102.0   -3.6  145.9   -5.4   293.6
 06 JAN 23  23:23:00:00     602    2.6      48   -1.0      218.0  102.0   -3.6  145.9   -5.4   293.0
 06 JAN 24  24:00:00:00     601    2.5      47    1.0      218.1  102.0   -3.7  145.9   -5.4   292.5
 06 JAN 24  24:01:00:00     584    3.1      43    1.9      218.2  102.0   -3.7  145.9   -5.4   291.9
 06 JAN 24  24:02:00:00     581    3.2      41    3.2      218.2  102.0   -3.7  145.9   -5.4   291.4
 06 JAN 24  24:03:00:00     584    3.0      42    3.5      218.3  102.0   -3.7  145.9   -5.4   290.8
 06 JAN 24  24:04:00:00     575    2.7      40    3.2      218.3  102.0   -3.8  145.9   -5.4   290.3
 06 JAN 24  24:05:00:00     569    2.4      39    2.7      218.4  102.0   -3.8  145.9   -5.4   289.7
 06 JAN 24  24:06:00:00     568    2.2      39    2.8      218.5  102.0   -3.8  145.9   -5.4   289.2
 06 JAN 24  24:07:00:00     566    2.0      42    2.4      218.5  102.0   -3.9  145.9   -5.4   288.6
 06 JAN 24  24:08:00:00     569    2.1      45    3.0      218.6  102.0   -3.9  145.9   -5.4   288.1
 06 JAN 24  24:09:00:00     570    2.4      45    4.2      218.6  102.0   -3.9  145.9   -5.4   287.5
 06 JAN 24  24:10:00:00     580    3.1      46    5.7      218.7  102.0   -3.9  145.9   -5.4   287.0
 06 JAN 24  24:11:00:00     588    3.9      46    7.6      218.7  101.9   -4.0  145.9   -5.4   286.4
 06 JAN 24  24:12:00:00     587    4.1      48    8.0      218.8  101.9   -4.0  145.9   -5.4   285.9
 06 JAN 24  24:13:00:00     574    4.2      46    8.0      218.9  101.9   -4.0  145.9   -5.4   285.3
 06 JAN 24  24:14:00:00     565    4.0      45    7.7      218.9  101.9   -4.0  145.9   -5.4   284.8
 06 JAN 24  24:15:00:00     559    3.7      47    7.5      219.0  101.9   -4.1  145.9   -5.4   284.2
 06 JAN 24  24:16:00:00     550    3.1      46    7.1      219.0  101.9   -4.1  145.9   -5.4   283.7
 06 JAN 24  24:17:00:00     539    3.0      45    6.7      219.1  101.9   -4.1  145.9   -5.4   283.1
 06 JAN 24  24:18:00:00     527    2.6      45    6.6      219.2  101.9   -4.2  145.9   -5.4   282.6
 06 JAN 24  24:19:00:00     508    2.4      42    5.3      219.2  101.9   -4.2  145.9   -5.4   282.0
 06 JAN 24  24:20:00:00     458    3.2      30    1.4      219.3  101.9   -4.2  145.9   -5.5   281.5
 06 JAN 24  24:21:00:00     452    3.4      29    0.7      219.3  101.9   -4.2  145.9   -5.5   280.9
 06 JAN 24  24:22:00:00     449    3.7      27   -0.5      219.4  101.9   -4.3  145.9   -5.5   280.4
 06 JAN 24  24:23:00:00     447    4.7      25   -2.0      219.5  101.9   -4.3  145.9   -5.5   279.8
 06 JAN 25  25:00:00:00     447    4.0      28   -2.0      219.5  101.9   -4.3  145.9   -5.5   279.3
 06 JAN 25  25:01:00:00     426    4.8      30   -5.0      219.6  101.9   -4.3  145.9   -5.5   278.7
 06 JAN 25  25:02:00:00     441    7.0      22   -6.6      219.6  101.8   -4.4  145.9   -5.5   278.2
 06 JAN 25  25:03:00:00     437    5.6      21   -7.7      219.7  101.8   -4.4  145.9   -5.5   277.6
 06 JAN 25  25:04:00:00     455    0.9      36   -1.8      219.7  101.8   -4.4  145.9   -5.5   277.1
 06 JAN 25  25:05:00:00     461    0.9      33   -1.3      219.8  101.8   -4.5  145.9   -5.5   276.5
 06 JAN 25  25:06:00:00     451    0.6      33   -2.8      219.9  101.8   -4.5  145.9   -5.5   276.0
 06 JAN 25  25:07:00:00     450    0.7      29   -3.2      219.9  101.8   -4.5  145.9   -5.5   275.4
 06 JAN 25  25:08:00:00     443    0.9      23   -3.9      220.0  101.8   -4.5  145.9   -5.5   274.9
 06 JAN 25  25:09:00:00     428    0.7      32    0.6      220.0  101.8   -4.6  145.9   -5.5   274.3
 06 JAN 25  25:10:00:00     434    0.6      31    0.2      220.1  101.8   -4.6  145.9   -5.5   273.8
 06 JAN 25  25:11:00:00     425    0.8      29   -1.9      220.2  101.8   -4.6  145.9   -5.5   273.2
 06 JAN 25  25:12:00:00     440    2.3      39    2.3      220.2  101.8   -4.6  145.9   -5.5   272.7
 06 JAN 25  25:13:00:00     452    2.6      37    4.3      220.3  101.7   -4.7  145.9   -5.5   272.1
 06 JAN 25  25:14:00:00     451    5.2      28    5.8      220.3  101.7   -4.7  145.9   -5.5   271.6
 06 JAN 25  25:15:00:00     444    5.8      24    6.5      220.4  101.7   -4.7  145.9   -5.5   271.0
 06 JAN 25  25:16:00:00     428    9.2      28    7.5      220.5  101.7   -4.8  145.9   -5.5   270.5
 06 JAN 25  25:17:00:00     436    7.2      26    6.8      220.5  101.7   -4.8  145.9   -5.5   269.9
 06 JAN 25  25:18:00:00     424   10.1      24    7.4      220.6  101.7   -4.8  145.9   -5.5   269.4
 06 JAN 25  25:19:00:00     390    7.8      27    4.7      220.6  101.7   -4.8  145.9   -5.5   268.8
 06 JAN 25  25:20:00:00     428   10.2      23    6.2      220.7  101.7   -4.9  145.9   -5.5   268.3
 06 JAN 25  25:21:00:00     440   13.0      21    7.4      220.7  101.7   -4.9  145.9   -5.5   267.7
 06 JAN 25  25:22:00:00     437   13.4      23    7.2      220.8  101.7   -4.9  145.9   -5.5   267.2
 06 JAN 25  25:23:00:00     434   11.7      31    5.2      220.9  101.6   -4.9  145.9   -5.5   266.6
 06 JAN 26  26:00:00:00     446    7.9      32    1.7      220.9  101.6   -5.0  145.9   -5.6   266.1
 06 JAN 26  26:01:00:00     457    4.7      34    1.4      221.0  101.6   -5.0  145.9   -5.6   265.5
 06 JAN 26  26:02:00:00     481    5.8      40    1.9      221.0  101.6   -5.0  145.9   -5.6   265.0
 06 JAN 26  26:03:00:00     491    4.9      43   -0.7      221.1  101.6   -5.1  145.9   -5.6   264.4
 06 JAN 26  26:04:00:00     489    5.3      42   -0.3      221.2  101.6   -5.1  145.9   -5.6   263.9
 06 JAN 26  26:05:00:00     491    5.5      41   -1.1      221.2  101.6   -5.1  145.9   -5.6   263.3
 06 JAN 26  26:06:00:00     499    5.4      43   -0.9      221.3  101.6   -5.1  145.9   -5.6   262.8
 06 JAN 26  26:07:00:00     503    4.7      43    0.9      221.3  101.5   -5.2  145.9   -5.6   262.2
 06 JAN 26  26:08:00:00     537    4.4      40   -4.6      221.4  101.5   -5.2  145.9   -5.6   261.7
 06 JAN 26  26:09:00:00     577    5.0      44   -5.6      221.4  101.5   -5.2  145.9   -5.6   261.1
 06 JAN 26  26:10:00:00     575    6.0      43   -6.2      221.5  101.5   -5.2  145.9   -5.6   260.6
 06 JAN 26  26:11:00:00     573    5.1      46   -0.5      221.6  101.5   -5.3  145.9   -5.6   260.0
 06 JAN 26  26:12:00:00     568    5.1      43   -3.3      221.6  101.5   -5.3  145.9   -5.6   259.5
 06 JAN 26  26:13:00:00     574    5.7      42   -4.0      221.7  101.5   -5.3  145.9   -5.6   258.9
 06 JAN 26  26:14:00:00     592    6.3      47   -4.5      221.7  101.4   -5.3  145.9   -5.6   258.4
 06 JAN 26  26:15:00:00     610    5.5      52   -3.9      221.8  101.4   -5.4  145.9   -5.6   257.8
 06 JAN 26  26:16:00:00     607    6.0      51   -6.6      221.9  101.4   -5.4  145.9   -5.6   257.3
 06 JAN 26  26:17:00:00     615    5.8      50   -6.1      221.9  101.4   -5.4  145.9   -5.6   256.7
 06 JAN 26  26:18:00:00     617    5.3      52   -5.3      222.0  101.4   -5.5  145.9   -5.6   256.2
 06 JAN 26  26:19:00:00     604    4.0      53   -2.8      222.0  101.4   -5.5  145.9   -5.6   255.6
 06 JAN 26  26:20:00:00     616    3.6      51   -3.9      222.1  101.4   -5.5  145.9   -5.6   255.1
 06 JAN 26  26:21:00:00     647    2.2      57   -0.9      222.1  101.3   -5.5  145.9   -5.6   254.5
 06 JAN 26  26:22:00:00     637    2.0      54    0.1      222.2  101.3   -5.6  145.9   -5.6   254.0
 06 JAN 26  26:23:00:00     592    2.7      46   -0.7      222.3  101.3   -5.6  145.9   -5.6   253.4
 06 JAN 27  27:00:00:00     654    1.3      51   -1.7      222.3  101.3   -5.6  145.9   -5.6   252.9
 06 JAN 27  27:01:00:00     719    1.3      49   -2.0      222.4  101.3   -5.6  145.9   -5.6   252.3
 06 JAN 27  27:02:00:00     698    1.1      51   -1.6      222.4  101.3   -5.7  145.9   -5.6   251.8
 06 JAN 27  27:03:00:00     668    1.3      56   -0.6      222.5  101.2   -5.7  145.9   -5.6   251.2
 06 JAN 27  27:04:00:00     681    1.5      59   -0.8      222.6  101.2   -5.7  145.9   -5.6   250.7
 06 JAN 27  27:05:00:00     704    1.7      58   -0.1      222.6  101.2   -5.7  145.9   -5.7   250.1
 06 JAN 27  27:06:00:00     677    1.4      58   -2.1      222.7  101.2   -5.8  145.9   -5.7   249.6
 06 JAN 27  27:07:00:00     649    1.4      55   -2.1      222.7  101.2   -5.8  145.9   -5.7   249.0
 06 JAN 27  27:08:00:00     661    1.5      59   -0.6      222.8  101.2   -5.8  145.9   -5.7   248.5
 06 JAN 27  27:09:00:00     626    1.8      53   -0.5      222.8  101.1   -5.9  145.9   -5.7   247.9
 06 JAN 27  27:10:00:00     629    1.8      53   -0.1      222.9  101.1   -5.9  145.9   -5.7   247.4
 06 JAN 27  27:11:00:00     646    1.6      55    0.0      223.0  101.1   -5.9  145.9   -5.7   246.8
 06 JAN 27  27:12:00:00     629    1.8      53   -0.6      223.0  101.1   -5.9  145.9   -5.7   246.3
 06 JAN 27  27:13:00:00     610    1.9      51   -0.1      223.1  101.1   -6.0  145.9   -5.7   245.7
 06 JAN 27  27:14:00:00     643    1.3      54    0.0      223.1  101.1   -6.0  145.9   -5.7   245.2
 06 JAN 27  27:15:00:00     632    1.2      52   -1.6      223.2  101.0   -6.0  145.9   -5.7   244.6
 06 JAN 27  27:16:00:00     607    1.7      50   -0.7      223.2  101.0   -6.0  145.9   -5.7   244.1
 06 JAN 27  27:17:00:00     612    1.4      49   -0.1      223.3  101.0   -6.1  145.9   -5.7   243.5
 06 JAN 27  27:18:00:00     586    1.8      42    0.8      223.4  101.0   -6.1  145.9   -5.7   243.0
 06 JAN 27  27:19:00:00     594    1.7      45   -1.0      223.4  101.0   -6.1  145.9   -5.7   242.4
 06 JAN 27  27:20:00:00     573    1.8      38   -0.4      223.5  100.9   -6.1  145.9   -5.7   241.9
 06 JAN 27  27:21:00:00     566    1.7      36   -0.7      223.5  100.9   -6.2  145.9   -5.7   241.3
 06 JAN 27  27:22:00:00     572    1.6      38   -0.6      223.6  100.9   -6.2  145.9   -5.7   240.8
 06 JAN 27  27:23:00:00     564    1.8      34    1.3      223.7  100.9   -6.2  145.9   -5.7   240.2
 06 JAN 28  28:00:00:00     566    1.1      39    0.0      223.7  100.9   -6.2  145.9   -5.7   239.7
 06 JAN 28  28:01:00:00     563    1.0      40   -0.7      223.8  100.8   -6.3  145.9   -5.7   239.1
 06 JAN 28  28:02:00:00     561    1.0      41   -1.3      223.8  100.8   -6.3  145.9   -5.7   238.6
 06 JAN 28  28:03:00:00     558    1.0      42   -0.1      223.9  100.8   -6.3  145.9   -5.7   238.0
 06 JAN 28  28:04:00:00     553    0.8      44   -0.3      223.9  100.8   -6.4  145.9   -5.7   237.5
 06 JAN 28  28:05:00:00     555    1.0      39   -0.3      224.0  100.7   -6.4  145.9   -5.7   236.9
 06 JAN 28  28:06:00:00     555    1.2      36   -0.7      224.1  100.7   -6.4  145.9   -5.7   236.4
 06 JAN 28  28:07:00:00     553    1.0      38   -1.1      224.1  100.7   -6.4  145.9   -5.7   235.8
 06 JAN 28  28:08:00:00     550    1.0      43    0.3      224.2  100.7   -6.5  145.9   -5.7   235.3
 06 JAN 28  28:09:00:00     546    0.9      44    0.1      224.2  100.7   -6.5  145.9   -5.7   234.7
 06 JAN 28  28:10:00:00     526    0.9      45    0.5      224.3  100.6   -6.5  145.9   -5.8   234.2
 06 JAN 28  28:11:00:00     524    0.9      45   -0.6      224.3  100.6   -6.5  145.9   -5.8   233.6
 06 JAN 28  28:12:00:00     536    0.9      45   -0.8      224.4  100.6   -6.6  145.9   -5.8   233.1
 06 JAN 28  28:13:00:00     534    0.8      46   -1.2      224.4  100.6   -6.6  145.9   -5.8   232.5
 06 JAN 28  28:14:00:00     517    1.0      45    0.7      224.5  100.5   -6.6  145.9   -5.8   232.0
 06 JAN 28  28:15:00:00     528    0.9      47    0.4      224.6  100.5   -6.6  145.9   -5.8   231.4
 06 JAN 28  28:16:00:00     501    1.2      43    1.2      224.6  100.5   -6.7  145.9   -5.8   230.9
 06 JAN 28  28:17:00:00     504    1.2      43    1.3      224.7  100.5   -6.7  145.9   -5.8   230.3
 06 JAN 28  28:18:00:00     478    1.7      37    0.5      224.7  100.5   -6.7  145.9   -5.8   229.8
 06 JAN 28  28:19:00:00     510    0.9      45    0.6      224.8  100.4   -6.7  145.9   -5.8   229.2
 06 JAN 28  28:20:00:00     467    1.9      34   -0.3      224.8  100.4   -6.8  145.9   -5.8   228.7
 06 JAN 28  28:21:00:00     468    1.8      34    0.0      224.9  100.4   -6.8  145.9   -5.8   228.1
 06 JAN 28  28:22:00:00     465    1.8      32   -0.5      225.0  100.4   -6.8  145.9   -5.8   227.6
 06 JAN 28  28:23:00:00     463    1.5      32    0.2      225.0  100.3   -6.8  145.9   -5.8   227.0
 06 JAN 29  29:00:00:00     464    1.4      31    0.3      225.1  100.3   -6.9  145.9   -5.8   226.5
 06 JAN 29  29:01:00:00     472    1.0      36   -0.1      225.1  100.3   -6.9  145.9   -5.8   225.9
 06 JAN 29  29:02:00:00     470    1.1      34   -0.2      225.2  100.2   -6.9  145.9   -5.8   225.4
 06 JAN 29  29:03:00:00     456    1.6      27    0.0      225.2  100.2   -6.9  145.9   -5.8   224.8
 06 JAN 29  29:04:00:00     457    1.3      28   -0.7      225.3  100.2   -7.0  145.9   -5.8   224.3
 06 JAN 29  29:05:00:00     456    1.2      29   -0.7      225.4  100.2   -7.0  145.9   -5.8   223.7
 06 JAN 29  29:06:00:00     451    1.1      27   -0.5      225.4  100.1   -7.0  145.9   -5.8   223.2
 06 JAN 29  29:07:00:00     428    0.9      34   -1.3      225.5  100.1   -7.0  145.9   -5.8   222.6
 06 JAN 29  29:08:00:00     425    0.9      34   -1.0      225.5  100.1   -7.1  145.9   -5.8   222.1
 06 JAN 29  29:09:00:00     426    0.9      33   -1.0      225.6  100.1   -7.1  145.9   -5.8   221.5
 06 JAN 29  29:10:00:00     429    1.0      32   -1.0      225.6  100.0   -7.1  145.9   -5.8   221.0
 06 JAN 29  29:11:00:00     415    0.9      32   -0.9      225.7  100.0   -7.2  145.9   -5.8   220.4
 06 JAN 29  29:12:00:00     391    0.9      28   -0.6      225.7  100.0   -7.2  145.9   -5.8   219.9
 06 JAN 29  29:13:00:00     396    1.0      29   -0.7      225.8  100.0   -7.2  145.9   -5.8   219.3
 06 JAN 29  29:14:00:00     400    0.5      30   -0.7      225.9   99.9   -7.2  145.9   -5.8   218.8
 06 JAN 29  29:15:00:00     395    0.4      29   -0.3      225.9   99.9   -7.3  145.9   -5.8   218.2
 06 JAN 29  29:16:00:00     396    0.4      28   -0.8      226.0   99.9   -7.3  145.9   -5.8   217.7
 06 JAN 29  29:17:00:00     367    1.0      23   -0.4      226.0   99.8   -7.3  145.9   -5.9   217.1
 06 JAN 29  29:18:00:00     350    2.1      19   -1.2      226.1   99.8   -7.3  145.9   -5.9   216.6
 06 JAN 29  29:19:00:00     350    2.0      19   -1.9      226.1   99.8   -7.4  145.9   -5.9   216.0
 06 JAN 29  29:20:00:00     349    2.2      18   -2.0      226.2   99.7   -7.4  145.9   -5.9   215.5
 06 JAN 29  29:21:00:00     348    2.9      16   -2.6      226.2   99.7   -7.4  145.9   -5.9   214.9
 06 JAN 29  29:22:00:00     349    2.4      19   -2.7      226.3   99.7   -7.4  145.9   -5.9   214.4
 06 JAN 29  29:23:00:00     349    2.2      17   -1.7      226.3   99.7   -7.5  145.9   -5.9   213.8
 06 JAN 30  30:00:00:00     350    2.1      18   -1.7      226.4   99.6   -7.5  145.9   -5.9   213.3
 06 JAN 30  30:01:00:00     349    2.2      19   -1.7      226.5   99.6   -7.5  145.9   -5.9   212.7
 06 JAN 30  30:02:00:00     350    2.1      20   -1.9      226.5   99.6   -7.5  145.9   -5.9   212.2
 06 JAN 30  30:03:00:00     350    2.1      19   -2.1      226.6   99.5   -7.6  145.9   -5.9   211.6
 06 JAN 30  30:04:00:00     353    1.8      21   -1.9      226.6   99.5   -7.6  145.9   -5.9   211.1
 06 JAN 30  30:05:00:00     349    2.1      19   -1.9      226.7   99.5   -7.6  145.9   -5.9   210.5
 06 JAN 30  30:06:00:00     348    2.3      19   -1.9      226.7   99.4   -7.6  145.9   -5.9   210.0
 06 JAN 30  30:07:00:00     350    2.0      20   -2.4      226.8   99.4   -7.7  145.9   -5.9   209.4
 06 JAN 30  30:08:00:00     350    1.4      23   -2.0      226.8   99.4   -7.7  145.9   -5.9   208.9
 06 JAN 30  30:09:00:00     347    1.7      21   -1.6      226.9   99.3   -7.7  145.9   -5.9   208.3
 06 JAN 30  30:10:00:00     348    2.0      19   -1.5      226.9   99.3   -7.7  145.9   -5.9   207.8
 06 JAN 30  30:11:00:00     348    1.9      20   -2.2      227.0   99.3   -7.8  145.9   -5.9   207.2
 06 JAN 30  30:12:00:00     350    2.0      22   -3.1      227.1   99.2   -7.8  145.9   -5.9   206.7
 06 JAN 30  30:13:00:00     349    1.9      22   -3.3      227.1   99.2   -7.8  145.9   -5.9   206.1
 06 JAN 30  30:14:00:00     350    1.7      23   -3.4      227.2   99.2   -7.8  145.9   -5.9   205.6
 06 JAN 30  30:15:00:00     349    1.5      24   -3.7      227.2   99.1   -7.9  145.9   -5.9   205.0
 06 JAN 30  30:16:00:00     334    1.5      23   -3.5      227.3   99.1   -7.9  145.9   -5.9   204.5
 06 JAN 30  30:17:00:00     348    2.0      21   -4.5      227.3   99.1   -7.9  145.9   -5.9   203.9
 06 JAN 30  30:18:00:00     357    2.2      21   -6.1      227.4   99.0   -7.9  145.9   -5.9   203.4
 06 JAN 30  30:19:00:00     358    1.9      21   -6.1      227.4   99.0   -8.0  145.9   -5.9   202.8
 06 JAN 30  30:20:00:00     356    1.5      22   -6.0      227.5   99.0   -8.0  145.9   -5.9   202.3
 06 JAN 30  30:21:00:00     341    1.2      22   -6.0      227.5   98.9   -8.0  145.9   -5.9   201.7
 06 JAN 30  30:22:00:00     334    1.0      23   -3.8      227.6   98.9   -8.0  145.9   -5.9   201.2
 06 JAN 30  30:23:00:00     328    1.1      21   -3.5      227.7   98.9   -8.1  145.9   -5.9   200.6
 06 JAN 31  31:00:00:00     332    1.3      21   -4.8      227.7   98.8   -8.1  145.9   -6.0   200.1
 06 JAN 31  31:01:00:00     338    1.4      22   -3.8      227.8   98.8   -8.1  145.9   -6.0   199.5
 06 JAN 31  31:02:00:00     337    1.6      21   -3.8      227.8   98.8   -8.1  145.9   -6.0   199.0
 06 JAN 31  31:03:00:00     339    1.9      22   -3.9      227.9   98.7   -8.2  145.9   -6.0   198.4
 06 JAN 31  31:04:00:00     339    1.9      23   -3.7      227.9   98.7   -8.2  145.9   -6.0   197.9
 06 JAN 31  31:05:00:00     340    2.1      23   -4.6      228.0   98.6   -8.2  145.9   -6.0   197.3
 06 JAN 31  31:06:00:00     334    1.7      23   -4.2      228.0   98.6   -8.2  145.9   -6.0   196.8
 06 JAN 31  31:07:00:00     321    2.0      21   -1.3      228.1   98.6   -8.3  145.9   -6.0   196.2
 06 JAN 31  31:08:00:00     309    2.6      20   -1.1      228.1   98.5   -8.3  145.9   -6.0   195.7
 06 JAN 31  31:09:00:00     294    3.3      19   -0.9      228.2   98.5   -8.3  145.9   -6.0   195.1
 06 JAN 31  31:10:00:00     293    3.9      19   -0.4      228.2   98.5   -8.3  145.9   -6.0   194.6
 06 JAN 31  31:11:00:00     293    3.9      18   -0.6      228.3   98.4   -8.4  145.9   -6.0   194.0
 06 JAN 31  31:12:00:00     314    2.1      22   -0.4      228.3   98.4   -8.4  145.9   -6.0   193.5
 06 JAN 31  31:13:00:00     319    2.5      22   -0.6      228.4   98.3   -8.4  145.9   -6.0   192.9
 06 JAN 31  31:14:00:00     314    2.3      21   -0.3      228.4   98.3   -8.4  145.9   -6.0   192.4
 06 JAN 31  31:15:00:00     323    2.7      22   -1.6      228.5   98.3   -8.4  145.9   -6.0   191.8
 06 JAN 31  31:16:00:00     312    2.5      20   -0.5      228.6   98.2   -8.5  145.9   -6.0   191.3
 06 JAN 31  31:17:00:00     303    4.1      19   -0.8      228.6   98.2   -8.5  145.9   -6.0   190.7
 06 JAN 31  31:18:00:00     296    3.6      19   -0.7      228.7   98.1   -8.5  145.9   -6.0   190.2
 06 JAN 31  31:19:00:00     297    4.5      19   -1.4      228.7   98.1   -8.5  145.9   -6.0   189.6
 06 JAN 31  31:20:00:00     290    5.5      18   -1.1      228.8   98.1   -8.6  145.9   -6.0   189.1
 06 JAN 31  31:21:00:00     289    6.2      18   -1.7      228.8   98.0   -8.6  145.9   -6.0   188.5
 06 JAN 31  31:22:00:00     293    6.1      19   -1.8      228.9   98.0   -8.6  145.9   -6.0   188.0
 06 JAN 31  31:23:00:00     285    7.2      17   -1.9      228.9   97.9   -8.6  145.9   -6.0   187.4
 06 FEB  1  32:00:00:00     304    5.5      20   -2.6      229.0   97.9   -8.7  145.9   -6.0   186.9
 06 FEB  1  32:01:00:00     312    6.3      20   -3.7      229.0   97.9   -8.7  145.9   -6.0   186.3
 06 FEB  1  32:02:00:00     327    3.7      22   -2.3      229.1   97.8   -8.7  145.9   -6.0   185.8
 06 FEB  1  32:03:00:00     338    3.8      24   -3.7      229.1   97.8   -8.7  146.0   -6.0   185.2
 06 FEB  1  32:04:00:00     338    3.2      24   -2.1      229.2   97.7   -8.8  146.0   -6.0   184.7
 06 FEB  1  32:05:00:00     326    3.7      22   -2.2      229.2   97.7   -8.8  146.0   -6.0   184.1
 06 FEB  1  32:06:00:00     326    3.6      22   -1.0      229.3   97.6   -8.8  146.0   -6.0   183.6
 06 FEB  1  32:07:00:00     346    3.2      26    0.7      229.3   97.6   -8.8  146.0   -6.0   183.0
 06 FEB  1  32:08:00:00     352    3.0      27    0.3      229.4   97.6   -8.9  146.0   -6.1   182.5
 06 FEB  1  32:09:00:00     352    3.0      25    0.0      229.4   97.5   -8.9  146.0   -6.1   181.9
 06 FEB  1  32:10:00:00     362    3.0      24   -1.8      229.5   97.5   -8.9  146.0   -6.1   181.4
 06 FEB  1  32:11:00:00     356    3.9      22   -2.5      229.5   97.4   -8.9  146.0   -6.1   180.8
 06 FEB  1  32:12:00:00     353    4.1      22   -0.3      229.6   97.4   -9.0  146.0   -6.1   180.3
 06 FEB  1  32:13:00:00     351    3.6      21    1.5      229.6   97.3   -9.0  146.0   -6.1   179.7
 06 FEB  1  32:14:00:00     348    3.6      21    1.8      229.7   97.3   -9.0  146.0   -6.1   179.2
 06 FEB  1  32:15:00:00     345    2.2      25   -0.9      229.8   97.2   -9.0  146.0   -6.1   178.7
 06 FEB  1  32:16:00:00     343    2.1      25    0.1      229.8   97.2   -9.1  146.0   -6.1   178.1
 06 FEB  1  32:17:00:00     343    2.5      24    0.4      229.9   97.1   -9.1  146.0   -6.1   177.6
 06 FEB  1  32:18:00:00     340    3.4      23   -0.8      229.9   97.1   -9.1  146.0   -6.1   177.0
 06 FEB  1  32:19:00:00     340    4.3      23   -2.8      230.0   97.1   -9.1  146.0   -6.1   176.5
 06 FEB  1  32:20:00:00     356    4.1      23   -2.0      230.0   97.0   -9.2  146.0   -6.1   175.9
 06 FEB  1  32:21:00:00     352    5.2      22   -2.5      230.1   97.0   -9.2  146.0   -6.1   175.4
 06 FEB  1  32:22:00:00     351    4.7      23   -1.7      230.1   96.9   -9.2  146.0   -6.1   174.8
 06 FEB  1  32:23:00:00     349    4.6      23   -2.0      230.2   96.9   -9.2  146.0   -6.1   174.3
 06 FEB  2  33:00:00:00     348    5.6      23   -0.2      230.2   96.8   -9.2  146.0   -6.1   173.7
 06 FEB  2  33:01:00:00     345    4.0      24    0.2      230.3   96.8   -9.3  146.0   -6.1   173.2
 06 FEB  2  33:02:00:00     345    4.0      25   -2.1      230.3   96.7   -9.3  146.0   -6.1   172.6
 06 FEB  2  33:03:00:00     348    4.9      22    2.0      230.4   96.7   -9.3  146.0   -6.1   172.1
 06 FEB  2  33:04:00:00     345    4.6      22    2.5      230.4   96.6   -9.3  146.0   -6.1   171.5
 06 FEB  2  33:05:00:00     342    4.1      24   -0.3      230.5   96.6   -9.4  146.0   -6.1   171.0
 06 FEB  2  33:06:00:00     344    5.9      22   -3.5      230.5   96.5   -9.4  146.0   -6.1   170.4
 06 FEB  2  33:07:00:00     348    8.8      21   -5.2      230.6   96.5   -9.4  146.0   -6.1   169.9
 06 FEB  2  33:08:00:00     351    7.2      21   -5.1      230.6   96.4   -9.4  146.0   -6.1   169.3
 06 FEB  2  33:09:00:00     346    5.3      22   -3.3      230.7   96.4   -9.5  146.0   -6.1   168.8
 06 FEB  2  33:10:00:00     341    5.2      23   -3.5      230.7   96.3   -9.5  146.0   -6.1   168.2
 06 FEB  2  33:11:00:00     349    7.3      21   -4.1      230.8   96.3   -9.5  146.0   -6.1   167.7
 06 FEB  2  33:12:00:00     343    5.0      22    0.2      230.8   96.2   -9.5  146.0   -6.1   167.1
 06 FEB  2  33:13:00:00     345    5.3      22   -1.7      230.9   96.2   -9.6  146.0   -6.1   166.6
 06 FEB  2  33:14:00:00     350    6.1      23   -4.6      230.9   96.1   -9.6  146.0   -6.1   166.0
 06 FEB  2  33:15:00:00     352    4.4      23   -3.1      231.0   96.1   -9.6  146.0   -6.1   165.5
 06 FEB  2  33:16:00:00     354    4.2      22   -3.8      231.0   96.0   -9.6  146.0   -6.1   164.9
 06 FEB  2  33:17:00:00     362    3.7      24   -2.5      231.1   96.0   -9.6  146.0   -6.1   164.4
 06 FEB  2  33:18:00:00     354    4.7      25   -5.0      231.1   95.9   -9.7  146.0   -6.2   163.8
 06 FEB  2  33:19:00:00     342    4.8      25   -3.3      231.2   95.9   -9.7  146.0   -6.2   163.3
 06 FEB  2  33:20:00:00     345    6.3      24   -2.6      231.2   95.8   -9.7  146.0   -6.2   162.7
 06 FEB  2  33:21:00:00     340    3.1      24   -1.5      231.3   95.8   -9.7  146.0   -6.2   162.2
 06 FEB  2  33:22:00:00     338    3.3      25   -3.8      231.3   95.7   -9.8  146.0   -6.2   161.6
 06 FEB  2  33:23:00:00     344    4.1      25   -2.4      231.4   95.6   -9.8  146.0   -6.2   161.1
 06 FEB  3  34:00:00:00     354    3.6      24   -1.6      231.4   95.6   -9.8  146.0   -6.2   160.5
 06 FEB  3  34:01:00:00     354    3.5      24   -2.2      231.5   95.5   -9.8  146.0   -6.2   160.0
 06 FEB  3  34:02:00:00     356    3.9      22   -0.6      231.5   95.5   -9.9  146.0   -6.2   159.4
 06 FEB  3  34:03:00:00     346    3.4      26   -0.9      231.6   95.4   -9.9  146.0   -6.2   158.9
 06 FEB  3  34:04:00:00     348    4.9      23    2.4      231.6   95.4   -9.9  146.0   -6.2   158.3
 06 FEB  3  34:05:00:00     349    5.6      23   -1.7      231.7   95.3   -9.9  146.0   -6.2   157.8
 06 FEB  3  34:06:00:00     348    8.0      22   -4.4      231.7   95.3  -10.0  146.0   -6.2   157.2
 06 FEB  3  34:07:00:00     352    4.4      22    0.2      231.8   95.2  -10.0  146.0   -6.2   156.7
 06 FEB  3  34:08:00:00     352    3.6      22   -0.3      231.8   95.2  -10.0  146.0   -6.2   156.1
 06 FEB  3  34:09:00:00     363    4.3      25   -2.7      231.9   95.1  -10.0  146.0   -6.2   155.6
 06 FEB  3  34:10:00:00     352    4.4      23   -0.1      231.9   95.0  -10.0  146.0   -6.2   155.0
 06 FEB  3  34:11:00:00     351    4.6      22   -0.5      232.0   95.0  -10.1  146.0   -6.2   154.5
 06 FEB  3  34:12:00:00     352    5.0      21    1.7      232.0   94.9  -10.1  146.0   -6.2   153.9
 06 FEB  3  34:13:00:00     352    4.6      21    0.3      232.1   94.9  -10.1  146.0   -6.2   153.4
 06 FEB  3  34:14:00:00     350    4.7      22   -2.3      232.1   94.8  -10.1  146.0   -6.2   152.8
 06 FEB  3  34:15:00:00     348    6.7      22   -2.9      232.2   94.8  -10.2  146.0   -6.2   152.3
 06 FEB  3  34:16:00:00     346    6.7      22   -4.3      232.2   94.7  -10.2  146.0   -6.2   151.7
 06 FEB  3  34:17:00:00     349    7.2      21   -3.2      232.3   94.6  -10.2  146.0   -6.2   151.2
 06 FEB  3  34:18:00:00     349    4.0      19   -0.4      232.3   94.6  -10.2  146.0   -6.2   150.6
 06 FEB  3  34:19:00:00     349    3.9      20   -0.1      232.4   94.5  -10.3  146.0   -6.2   150.1
 06 FEB  3  34:20:00:00     351    4.1      20   -2.4      232.4   94.5  -10.3  146.0   -6.2   149.5
 06 FEB  3  34:21:00:00     351    6.7      21   -4.7      232.5   94.4  -10.3  146.0   -6.2   149.0
 06 FEB  3  34:22:00:00     360    5.6      24   -2.7      232.5   94.3  -10.3  146.0   -6.2   148.4
 06 FEB  3  34:23:00:00     362    5.6      25   -1.1      232.6   94.3  -10.3  146.0   -6.2   147.9
 06 FEB  4  35:00:00:00     360    5.9      24   -1.9      232.6   94.2  -10.4  146.0   -6.2   147.3
 06 FEB  4  35:01:00:00     357    5.0      24   -2.2      232.7   94.2  -10.4  146.0   -6.2   146.8
 06 FEB  4  35:02:00:00     379    3.7      29    0.5      232.7   94.1  -10.4  146.0   -6.2   146.2
 06 FEB  4  35:03:00:00     375    4.2      27   -0.9      232.8   94.0  -10.4  146.0   -6.2   145.7
 06 FEB  4  35:04:00:00     381    3.5      28   -2.0      232.8   94.0  -10.5  146.0   -6.3   145.1
 06 FEB  4  35:05:00:00     374    3.4      27   -1.7      232.9   93.9  -10.5  146.0   -6.3   144.6
 06 FEB  4  35:06:00:00     384    2.5      30    0.5      232.9   93.9  -10.5  146.0   -6.3   144.0
 06 FEB  4  35:07:00:00     362    4.4      23   -0.7      233.0   93.8  -10.5  146.0   -6.3   143.5
 06 FEB  4  35:08:00:00     359    4.6      22   -2.6      233.0   93.7  -10.6  146.0   -6.3   142.9
 06 FEB  4  35:09:00:00     363    3.5      23   -3.6      233.1   93.7  -10.6  146.0   -6.3   142.4
 06 FEB  4  35:10:00:00     353    4.3      21   -3.3      233.1   93.6  -10.6  146.0   -6.3   141.8
 06 FEB  4  35:11:00:00     356    3.2      22   -3.1      233.2   93.5  -10.6  146.0   -6.3   141.3
 06 FEB  4  35:12:00:00     355    2.8      23   -0.8      233.2   93.5  -10.6  146.0   -6.3   140.7
 06 FEB  4  35:13:00:00     352    3.0      22   -1.3      233.3   93.4  -10.7  146.0   -6.3   140.2
 06 FEB  4  35:14:00:00     351    3.7      20   -1.6      233.3   93.4  -10.7  146.0   -6.3   139.6
 06 FEB  4  35:15:00:00     364    2.9      22    0.8      233.3   93.3  -10.7  146.0   -6.3   139.1
 06 FEB  4  35:16:00:00     348    3.3      17   -0.5      233.4   93.2  -10.7  146.0   -6.3   138.5
 06 FEB  4  35:17:00:00     348    2.8      16   -0.8      233.4   93.2  -10.8  146.0   -6.3   138.0
 06 FEB  4  35:18:00:00     348    2.8      18   -0.8      233.5   93.1  -10.8  146.0   -6.3   137.4
 06 FEB  4  35:19:00:00     349    3.7      17    0.1      233.5   93.0  -10.8  146.0   -6.3   136.9
 06 FEB  4  35:20:00:00     348    3.0      18    0.0      233.6   93.0  -10.8  146.0   -6.3   136.3
 06 FEB  4  35:21:00:00     349    4.4      19   -4.1      233.6   92.9  -10.9  146.0   -6.3   135.8
 06 FEB  4  35:22:00:00     351    6.1      20   -6.2      233.7   92.8  -10.9  146.0   -6.3   135.2
 06 FEB  4  35:23:00:00     353    5.7      20   -5.2      233.7   92.8  -10.9  146.0   -6.3   134.7
 06 FEB  5  36:00:00:00     354    5.6      21   -5.8      233.8   92.7  -10.9  146.0   -6.3   134.1
 06 FEB  5  36:01:00:00     354    4.2      21   -1.2      233.8   92.6  -10.9  146.0   -6.3   133.6
 06 FEB  5  36:02:00:00     351    4.4      20   -0.6      233.9   92.6  -11.0  146.0   -6.3   133.0
 06 FEB  5  36:03:00:00     345    4.1      19   -4.1      233.9   92.5  -11.0  146.0   -6.3   132.5
 06 FEB  5  36:04:00:00     344    4.1      20   -4.8      234.0   92.4  -11.0  146.0   -6.3   131.9
 06 FEB  5  36:05:00:00     347    3.7      19   -3.2      234.0   92.4  -11.0  146.0   -6.3   131.4
 06 FEB  5  36:06:00:00     344    3.8      20   -2.8      234.1   92.3  -11.1  146.0   -6.3   130.8
 06 FEB  5  36:07:00:00     344    3.0      18   -1.3      234.1   92.2  -11.1  146.0   -6.3   130.3
 06 FEB  5  36:08:00:00     346    3.1      16   -0.3      234.2   92.2  -11.1  146.0   -6.3   129.7
 06 FEB  5  36:09:00:00     345    3.2      19   -0.5      234.2   92.1  -11.1  146.0   -6.3   129.2
 06 FEB  5  36:10:00:00     346    4.1      19   -0.7      234.3   92.0  -11.1  146.0   -6.3   128.6
 06 FEB  5  36:11:00:00     346    4.4      16    0.3      234.3   92.0  -11.2  146.0   -6.3   128.1
 06 FEB  5  36:12:00:00     347    4.8      16    0.1      234.4   91.9  -11.2  146.0   -6.3   127.5
 06 FEB  5  36:13:00:00     347    6.2      15    0.7      234.4   91.8  -11.2  146.0   -6.3   127.0
 06 FEB  5  36:14:00:00     346    6.1      17    0.4      234.5   91.7  -11.2  146.0   -6.3   126.4
 06 FEB  5  36:15:00:00     347    6.7      17   -0.8      234.5   91.7  -11.3  146.0   -6.3   125.9
 06 FEB  5  36:16:00:00     348    8.5      16    0.4      234.6   91.6  -11.3  146.0   -6.3   125.3
 06 FEB  5  36:17:00:00     347    8.7      15   -0.8      234.6   91.5  -11.3  146.0   -6.4   124.8
 06 FEB  5  36:18:00:00     347    9.8      13   -0.3      234.7   91.5  -11.3  146.0   -6.4   124.2
 06 FEB  5  36:19:00:00     345    7.0       8   -2.5      234.7   91.4  -11.3  146.0   -6.4   123.7
 06 FEB  5  36:20:00:00     345    4.5       8   -1.9      234.8   91.3  -11.4  146.0   -6.4   123.1
 06 FEB  5  36:21:00:00     346    8.4      13   -4.5      234.8   91.3  -11.4  146.0   -6.4   122.6
 06 FEB  5  36:22:00:00     346    7.1      12   -5.1      234.9   91.2  -11.4  146.0   -6.4   122.0
 06 FEB  5  36:23:00:00     348    4.9      16   -5.5      234.9   91.1  -11.4  146.0   -6.4   121.5
 06 FEB  6  37:00:00:00     347    7.4      15   -5.9      235.0   91.0  -11.5  146.0   -6.4   120.9
 06 FEB  6  37:01:00:00     347    4.3      16   -2.1      235.0   91.0  -11.5  146.0   -6.4   120.4
 06 FEB  6  37:02:00:00     346    4.8      16    0.3      235.0   90.9  -11.5  146.0   -6.4   119.8
 06 FEB  6  37:03:00:00     342    6.6      20   -0.4      235.1   90.8  -11.5  146.0   -6.4   119.3
 06 FEB  6  37:04:00:00     357    3.4      25   -2.3      235.1   90.7  -11.5  146.0   -6.4   118.7
 06 FEB  6  37:05:00:00     357    2.2      23   -1.1      235.2   90.7  -11.6  146.0   -6.4   118.2
 06 FEB  6  37:06:00:00     350    2.4      21   -0.6      235.2   90.6  -11.6  146.0   -6.4   117.6
 06 FEB  6  37:07:00:00     345    2.4      24   -0.6      235.3   90.5  -11.6  146.0   -6.4   117.1
 06 FEB  6  37:08:00:00     347    2.5      21    0.5      235.3   90.4  -11.6  146.0   -6.4   116.5
 06 FEB  6  37:09:00:00     347    2.8      22    1.2      235.4   90.4  -11.7  146.0   -6.4   116.0
 06 FEB  6  37:10:00:00     330    3.7      23   -1.6      235.4   90.3  -11.7  146.0   -6.4   115.4
 06 FEB  6  37:11:00:00     332    5.2      22    0.6      235.5   90.2  -11.7  146.0   -6.4   114.9
 06 FEB  6  37:12:00:00     323    6.4      20   -1.3      235.5   90.1  -11.7  146.0   -6.4   114.3
 06 FEB  6  37:13:00:00     327    4.7      21    1.2      235.6   90.1  -11.7  146.0   -6.4   113.8
 06 FEB  6  37:14:00:00     329    2.8      21   -0.8      235.6   90.0  -11.8  146.0   -6.4   113.2
 06 FEB  6  37:15:00:00     323    3.5      21   -2.3      235.7   89.9  -11.8  146.0   -6.4   112.7
 06 FEB  6  37:16:00:00     318    3.3      20   -1.1      235.7   89.8  -11.8  146.0   -6.4   112.1
 06 FEB  6  37:17:00:00     322    2.8      21   -1.3      235.8   89.8  -11.8  146.0   -6.4   111.6
 06 FEB  6  37:18:00:00     330    3.2      23   -2.6      235.8   89.7  -11.9  146.0   -6.4   111.0
 06 FEB  6  37:19:00:00     335    3.2      23    0.5      235.9   89.6  -11.9  146.0   -6.4   110.5
 06 FEB  6  37:20:00:00     335    3.7      23    0.2      235.9   89.5  -11.9  146.0   -6.4   109.9
 06 FEB  6  37:21:00:00     332    4.4      23    2.0      236.0   89.5  -11.9  146.0   -6.4   109.4
 06 FEB  6  37:22:00:00     332    5.5      23    1.1      236.0   89.4  -11.9  146.0   -6.4   108.8
 06 FEB  6  37:23:00:00     335    7.7      23    2.7      236.1   89.3  -12.0  146.0   -6.4   108.3
 06 FEB  7  38:00:00:00     335    7.4      22    2.9      236.1   89.2  -12.0  146.0   -6.4   107.7
 06 FEB  7  38:01:00:00     331    4.7      23    0.1      236.2   89.1  -12.0  146.0   -6.4   107.2
 06 FEB  7  38:02:00:00     336    5.1      23    1.2      236.2   89.1  -12.0  146.0   -6.4   106.6
 06 FEB  7  38:03:00:00     338   10.6      23    4.8      236.3   89.0  -12.1  146.0   -6.4   106.1
 06 FEB  7  38:04:00:00     338    7.6      23    2.1      236.3   88.9  -12.1  146.0   -6.4   105.5
 06 FEB  7  38:05:00:00     338    6.2      24    0.7      236.4   88.8  -12.1  146.0   -6.4   105.0
 06 FEB  7  38:06:00:00     336    5.5      24   -1.2      236.4   88.7  -12.1  146.0   -6.4   104.5
 06 FEB  7  38:07:00:00     341    7.2      22   -0.5      236.4   88.7  -12.1  146.0   -6.5   103.9
 06 FEB  7  38:08:00:00     342    7.1      21   -0.5      236.5   88.6  -12.2  146.0   -6.5   103.4
 06 FEB  7  38:09:00:00     345    6.5      20   -2.1      236.5   88.5  -12.2  146.0   -6.5   102.8
 06 FEB  7  38:10:00:00     347    6.1      19   -2.2      236.6   88.4  -12.2  146.0   -6.5   102.3
 06 FEB  7  38:11:00:00     347    5.0      16   -1.4      236.6   88.3  -12.2  146.0   -6.5   101.7
 06 FEB  7  38:12:00:00     346    4.3      14   -0.6      236.7   88.3  -12.3  146.0   -6.5   101.2
 06 FEB  7  38:13:00:00     346    4.3      12   -0.8      236.7   88.2  -12.3  146.0   -6.5   100.6
 06 FEB  7  38:14:00:00     346    4.0      12   -0.9      236.8   88.1  -12.3  146.0   -6.5   100.1
 06 FEB  7  38:15:00:00     346    4.0      11   -0.8      236.8   88.0  -12.3  146.0   -6.5    99.5
 06 FEB  7  38:16:00:00     347    4.4      16   -0.7      236.9   87.9  -12.3  146.0   -6.5    99.0
 06 FEB  7  38:17:00:00     348    3.8      18   -0.4      236.9   87.9  -12.4  146.0   -6.5    98.4
 06 FEB  7  38:18:00:00     348    3.7      18   -0.9      237.0   87.8  -12.4  146.0   -6.5    97.9
 06 FEB  7  38:19:00:00     349    3.3      19   -0.9      237.0   87.7  -12.4  146.0   -6.5    97.3
 06 FEB  7  38:20:00:00     356    3.0      21   -1.6      237.1   87.6  -12.4  146.0   -6.5    96.8
 06 FEB  7  38:21:00:00     376    2.2      25   -2.0      237.1   87.5  -12.4  146.0   -6.5    96.2
 06 FEB  7  38:22:00:00     394    1.7      27   -0.2      237.2   87.4  -12.5  146.0   -6.5    95.7
 06 FEB  7  38:23:00:00     385    2.1      28   -2.3      237.2   87.4  -12.5  146.1   -6.5    95.1
 06 FEB  8  39:00:00:00     358    2.2      24   -3.3      237.3   87.3  -12.5  146.1   -6.5    94.6
 06 FEB  8  39:01:00:00     348    2.8      25   -2.1      237.3   87.2  -12.5  146.1   -6.5    94.0
 06 FEB  8  39:02:00:00     345    3.1      24   -2.3      237.4   87.1  -12.6  146.1   -6.5    93.5
 06 FEB  8  39:03:00:00     344    3.2      23   -1.6      237.4   87.0  -12.6  146.1   -6.5    92.9
 06 FEB  8  39:04:00:00     340    4.5      21   -2.1      237.5   86.9  -12.6  146.1   -6.5    92.4
 06 FEB  8  39:05:00:00     337    5.0      22   -0.4      237.5   86.9  -12.6  146.1   -6.5    91.8
 06 FEB  8  39:06:00:00     335    5.5      22    0.8      237.6   86.8  -12.6  146.1   -6.5    91.3
 06 FEB  8  39:07:00:00     336    5.7      22    1.1      237.6   86.7  -12.7  146.1   -6.5    90.7
 06 FEB  8  39:08:00:00     331    5.0      20    0.8      237.7   86.6  -12.7  146.1   -6.5    90.2
 06 FEB  8  39:09:00:00     325    3.6      20    0.6      237.7   86.5  -12.7  146.1   -6.5    89.6
 06 FEB  8  39:10:00:00     311    3.8      19    0.1      237.7   86.4  -12.7  146.1   -6.5    89.1
 06 FEB  8  39:11:00:00     299    4.3      19    0.3      237.8   86.3  -12.7  146.1   -6.5    88.5
 06 FEB  8  39:12:00:00     291    4.5      18   -0.4      237.8   86.2  -12.8  146.1   -6.5    88.0
 06 FEB  8  39:13:00:00     284    4.9      17   -0.4      237.9   86.2  -12.8  146.1   -6.5    87.4
 06 FEB  8  39:14:00:00     280    5.8      16   -1.1      237.9   86.1  -12.8  146.1   -6.5    86.9
 06 FEB  8  39:15:00:00     276    6.4      16   -1.1      238.0   86.0  -12.8  146.1   -6.5    86.3
 06 FEB  8  39:16:00:00     277    5.4      16   -0.3      238.0   85.9  -12.8  146.1   -6.5    85.8
 06 FEB  8  39:17:00:00     279    4.8      16   -0.2      238.1   85.8  -12.9  146.1   -6.5    85.2
 06 FEB  8  39:18:00:00     281    5.5      17   -0.1      238.1   85.7  -12.9  146.1   -6.5    84.7
 06 FEB  8  39:19:00:00     276    6.7      15   -0.3      238.2   85.6  -12.9  146.1   -6.5    84.1
 06 FEB  8  39:20:00:00     275    7.6      14   -0.6      238.2   85.5  -12.9  146.1   -6.5    83.6
 06 FEB  8  39:21:00:00     284    3.5      16   -0.1      238.3   85.5  -13.0  146.1   -6.5    83.0
 06 FEB  8  39:22:00:00     283    2.8      17    0.0      238.3   85.4  -13.0  146.1   -6.5    82.5
 06 FEB  8  39:23:00:00     288    2.1      18    0.1      238.4   85.3  -13.0  146.1   -6.6    81.9
 06 FEB  9  40:00:00:00     291    2.0      18    0.0      238.4   85.2  -13.0  146.1   -6.6    81.4
 06 FEB  9  40:01:00:00     294    2.1      19    0.0      238.5   85.1  -13.0  146.1   -6.6    80.8
 06 FEB  9  40:02:00:00     290    2.2      18   -0.1      238.5   85.0  -13.1  146.1   -6.6    80.3
 06 FEB  9  40:03:00:00     293    2.3      18   -0.1      238.6   84.9  -13.1  146.1   -6.6    79.7
 06 FEB  9  40:04:00:00     307    1.2      19    0.1      238.6   84.8  -13.1  146.1   -6.6    79.2
 06 FEB  9  40:05:00:00     320    0.9      22   -0.4      238.7   84.7  -13.1  146.1   -6.6    78.6
 06 FEB  9  40:06:00:00     316    1.3      21   -0.4      238.7   84.7  -13.1  146.1   -6.6    78.1
 06 FEB  9  40:07:00:00     296    1.9      19   -0.3      238.8   84.6  -13.2  146.1   -6.6    77.5
 06 FEB  9  40:08:00:00     286    3.2      17   -0.6      238.8   84.5  -13.2  146.1   -6.6    77.0
 06 FEB  9  40:09:00:00     298    2.6      19   -0.7      238.9   84.4  -13.2  146.1   -6.6    76.4
 06 FEB  9  40:10:00:00     308    2.6      19   -0.1      238.9   84.3  -13.2  146.1   -6.6    75.9
 06 FEB  9  40:11:00:00     337    1.7      23    0.3      239.0   84.2  -13.2  146.1   -6.6    75.3
 06 FEB  9  40:12:00:00     339    1.6      24    1.0      239.0   84.1  -13.3  146.1   -6.6    74.8
 06 FEB  9  40:13:00:00     348    1.7      23    0.8      239.0   84.0  -13.3  146.1   -6.6    74.2
 06 FEB  9  40:14:00:00     345    2.2      22    0.1      239.1   83.9  -13.3  146.1   -6.6    73.7
 06 FEB  9  40:15:00:00     340    2.2      21   -1.0      239.1   83.8  -13.3  146.1   -6.6    73.1
 06 FEB  9  40:16:00:00     338    1.8      21   -0.6      239.2   83.7  -13.4  146.1   -6.6    72.6
 06 FEB  9  40:17:00:00     338    1.5      21   -0.3      239.2   83.6  -13.4  146.1   -6.6    72.0
 06 FEB  9  40:18:00:00     341    1.3      22   -0.2      239.3   83.5  -13.4  146.1   -6.6    71.5
 06 FEB  9  40:19:00:00     334    1.2      22    0.7      239.3   83.5  -13.4  146.1   -6.6    70.9
 06 FEB  9  40:20:00:00     335    1.3      23    0.4      239.4   83.4  -13.4  146.1   -6.6    70.4
 06 FEB  9  40:21:00:00     321    1.5      21   -0.2      239.4   83.3  -13.5  146.1   -6.6    69.8
 06 FEB  9  40:22:00:00     325    1.3      22   -0.2      239.5   83.2  -13.5  146.1   -6.6    69.3
 06 FEB  9  40:23:00:00     300    1.4      19    0.0      239.5   83.1  -13.5  146.1   -6.6    68.7
 06 FEB 10  41:00:00:00     290    1.7      18    0.1      239.6   83.0  -13.5  146.1   -6.6    68.2
 06 FEB 10  41:01:00:00     277    3.4      16   -0.4      239.6   82.9  -13.5  146.1   -6.6    67.6
 06 FEB 10  41:02:00:00     276    3.9      15   -0.4      239.7   82.8  -13.6  146.1   -6.6    67.1
 06 FEB 10  41:03:00:00     290    1.9      18    0.0      239.7   82.7  -13.6  146.1   -6.6    66.5
 06 FEB 10  41:04:00:00     284    3.2      17   -0.6      239.8   82.6  -13.6  146.1   -6.6    66.0
 06 FEB 10  41:05:00:00     279    4.8      16   -0.9      239.8   82.5  -13.6  146.1   -6.6    65.4
 06 FEB 10  41:06:00:00     275    5.4      14   -0.8      239.9   82.4  -13.6  146.1   -6.6    64.9
 06 FEB 10  41:07:00:00      -1   -1.0      -1   99.0      239.9   82.3  -13.7  146.1   -6.6    64.3
 06 FEB 10  41:08:00:00     274    4.7      13   -0.3      240.0   82.2  -13.7  146.1   -6.6    63.8
 06 FEB 10  41:09:00:00     273    5.2      12   -0.5      240.0   82.1  -13.7  146.1   -6.6    63.2
 06 FEB 10  41:10:00:00     274    5.3      13   -0.6      240.1   82.0  -13.7  146.1   -6.6    62.7
 06 FEB 10  41:11:00:00     274    5.6      13   -0.9      240.1   81.9  -13.7  146.1   -6.6    62.1
 06 FEB 10  41:12:00:00     274    5.0      13   -0.7      240.2   81.8  -13.8  146.1   -6.6    61.6
 06 FEB 10  41:13:00:00     274    5.4      14   -0.8      240.2   81.7  -13.8  146.1   -6.6    61.0
 06 FEB 10  41:14:00:00     274    5.1      14   -0.7      240.3   81.6  -13.8  146.1   -6.6    60.5
 06 FEB 10  41:15:00:00     278    5.6      16   -0.8      240.3   81.5  -13.8  146.1   -6.6    59.9
 06 FEB 10  41:16:00:00     302    2.4      19   -1.3      240.4   81.4  -13.8  146.1   -6.6    59.4
 06 FEB 10  41:17:00:00     319    3.6      20   -2.7      240.4   81.4  -13.9  146.1   -6.6    58.8
 06 FEB 10  41:18:00:00     325    4.5      22   -2.3      240.5   81.3  -13.9  146.1   -6.7    58.3
 06 FEB 10  41:19:00:00     333    4.7      24    1.0      240.5   81.2  -13.9  146.1   -6.7    57.7
 06 FEB 10  41:20:00:00     337    6.1      24    3.3      240.5   81.1  -13.9  146.1   -6.7    57.2
 06 FEB 10  41:21:00:00     332    5.9      24    2.6      240.6   81.0  -13.9  146.1   -6.7    56.6
 06 FEB 10  41:22:00:00     313    8.6      20   -1.8      240.6   80.9  -14.0  146.1   -6.7    56.1
 06 FEB 10  41:23:00:00     310    9.6      20   -0.7      240.7   80.8  -14.0  146.1   -6.7    55.5
 06 FEB 11  42:00:00:00     311   11.2      20    2.1      240.7   80.7  -14.0  146.1   -6.7    55.0
 06 FEB 11  42:01:00:00     304   12.1      19    1.4      240.8   80.6  -14.0  146.1   -6.7    54.4
 06 FEB 11  42:02:00:00     291   13.7      18    2.6      240.8   80.5  -14.0  146.1   -6.7    53.9
 06 FEB 11  42:03:00:00     294   12.7      18    1.9      240.9   80.4  -14.1  146.1   -6.7    53.3
 06 FEB 11  42:04:00:00     301   10.8      19    1.0      240.9   80.3  -14.1  146.1   -6.7    52.8
 06 FEB 11  42:05:00:00     319    8.0      19    0.9      241.0   80.2  -14.1  146.1   -6.7    52.2
 06 FEB 11  42:06:00:00     318   12.3      20    3.6      241.0   80.1  -14.1  146.1   -6.7    51.7
 06 FEB 11  42:07:00:00     332   15.5      20    6.3      241.1   80.0  -14.1  146.1   -6.7    51.1
 06 FEB 11  42:08:00:00     331    7.3      21    4.1      241.1   79.9  -14.2  146.1   -6.7    50.6
 06 FEB 11  42:09:00:00     337   10.1      20    5.5      241.2   79.8  -14.2  146.1   -6.7    50.0
 06 FEB 11  42:10:00:00     343    6.6      21    1.9      241.2   79.7  -14.2  146.1   -6.7    49.5
 06 FEB 11  42:11:00:00     355    6.8      21    1.0      241.3   79.6  -14.2  146.1   -6.7    49.0
 06 FEB 11  42:12:00:00     356    7.5      21    4.7      241.3   79.5  -14.2  146.1   -6.7    48.4
 06 FEB 11  42:13:00:00     371    4.6      26    2.8      241.4   79.4  -14.3  146.1   -6.7    47.9
 06 FEB 11  42:14:00:00     387    4.3      30    1.6      241.4   79.3  -14.3  146.1   -6.7    47.3
 06 FEB 11  42:15:00:00     401    3.5      31    1.7      241.5   79.1  -14.3  146.1   -6.7    46.8
 06 FEB 11  42:16:00:00     404    2.6      32    1.5      241.5   79.0  -14.3  146.1   -6.7    46.2
 06 FEB 11  42:17:00:00     418    2.0      36    1.7      241.6   78.9  -14.3  146.1   -6.7    45.7
 06 FEB 11  42:18:00:00     430    1.8      39   -0.6      241.6   78.8  -14.4  146.1   -6.7    45.1
 06 FEB 11  42:19:00:00     420    2.3      36   -0.3      241.7   78.7  -14.4  146.1   -6.7    44.6
 06 FEB 11  42:20:00:00     424    3.0      34    2.1      241.7   78.6  -14.4  146.1   -6.7    44.0
 06 FEB 11  42:21:00:00     440    2.9      27    2.3      241.8   78.5  -14.4  146.1   -6.7    43.5
 06 FEB 11  42:22:00:00     429    4.2      31    3.7      241.8   78.4  -14.4  146.1   -6.7    42.9
 06 FEB 11  42:23:00:00     431    4.7      31    2.4      241.9   78.3  -14.5  146.1   -6.7    42.4
 06 FEB 12  43:00:00:00     437    4.3      30    0.4      241.9   78.2  -14.5  146.1   -6.7    41.8
 06 FEB 12  43:01:00:00     455    4.0      34   -0.1      242.0   78.1  -14.5  146.1   -6.7    41.3
 06 FEB 12  43:02:00:00     465    3.7      37   -1.0      242.0   78.0  -14.5  146.1   -6.7    40.7
 06 FEB 12  43:03:00:00     459    3.2      32    0.8      242.1   77.9  -14.5  146.1   -6.7    40.2
 06 FEB 12  43:04:00:00     472    2.5      36   -0.8      242.1   77.8  -14.6  146.1   -6.7    39.6
 06 FEB 12  43:05:00:00     509    2.6      42   -3.8      242.2   77.7  -14.6  146.1   -6.7    39.1
 06 FEB 12  43:06:00:00     514    2.5      44   -1.2      242.2   77.6  -14.6  146.1   -6.7    38.5
 06 FEB 12  43:07:00:00     532    1.8      46   -1.0      242.2   77.5  -14.6  146.1   -6.7    38.0
 06 FEB 12  43:08:00:00     537    1.3      47   -1.9      242.3   77.4  -14.6  146.1   -6.7    37.4
 06 FEB 12  43:09:00:00     549    1.0      46   -2.3      242.3   77.3  -14.7  146.1   -6.7    36.9
 06 FEB 12  43:10:00:00     503    1.3      43   -1.8      242.4   77.2  -14.7  146.1   -6.7    36.3
 06 FEB 12  43:11:00:00     507    1.9      39   -5.3      242.4   77.1  -14.7  146.1   -6.7    35.8
 06 FEB 12  43:12:00:00     488    1.3      38   -1.2      242.5   77.0  -14.7  146.1   -6.7    35.2
 06 FEB 12  43:13:00:00     476    1.3      35   -1.2      242.5   76.9  -14.7  146.1   -6.7    34.7
 06 FEB 12  43:14:00:00     475    1.7      33   -1.7      242.6   76.8  -14.8  146.1   -6.7    34.1
 06 FEB 12  43:15:00:00     463    2.0      29   -2.5      242.6   76.6  -14.8  146.1   -6.7    33.6
 06 FEB 12  43:16:00:00     454    1.5      27   -0.4      242.7   76.5  -14.8  146.1   -6.8    33.0
 06 FEB 12  43:17:00:00     452    1.2      26   -0.1      242.7   76.4  -14.8  146.1   -6.8    32.5
 06 FEB 12  43:18:00:00     436    1.0      29    0.1      242.8   76.3  -14.8  146.1   -6.8    31.9
 06 FEB 12  43:19:00:00     423    0.9      30   -1.4      242.8   76.2  -14.9  146.1   -6.8    31.4
 06 FEB 12  43:20:00:00     401    0.8      28   -1.6      242.9   76.1  -14.9  146.1   -6.8    30.8
 06 FEB 12  43:21:00:00     389    1.0      26   -1.3      242.9   76.0  -14.9  146.1   -6.8    30.3
 06 FEB 12  43:22:00:00     369    1.7      22   -1.1      243.0   75.9  -14.9  146.1   -6.8    29.7
 06 FEB 12  43:23:00:00     354    2.0      20   -0.7      243.0   75.8  -14.9  146.1   -6.8    29.2
 06 FEB 13  44:00:00:00     350    2.2      18    0.1      243.1   75.7  -15.0  146.1   -6.8    28.6
 06 FEB 13  44:01:00:00     348    2.0      15    0.0      243.1   75.6  -15.0  146.1   -6.8    28.1
 06 FEB 13  44:02:00:00     348    1.9      17   -1.0      243.2   75.5  -15.0  146.1   -6.8    27.5
 06 FEB 13  44:03:00:00     347    1.5      18   -1.0      243.2   75.4  -15.0  146.1   -6.8    27.0
 06 FEB 13  44:04:00:00     347    1.5      19   -1.5      243.3   75.3  -15.0  146.1   -6.8    26.4
 06 FEB 13  44:05:00:00     347    2.2      15   -1.4      243.3   75.1  -15.0  146.1   -6.8    25.9
 06 FEB 13  44:06:00:00     347    2.1      15   -1.3      243.4   75.0  -15.1  146.2   -6.8    25.3
 06 FEB 13  44:07:00:00     346    2.6      13   -1.5      243.4   74.9  -15.1  146.2   -6.8    24.8
 06 FEB 13  44:08:00:00     347    2.4      13   -1.0      243.5   74.8  -15.1  146.2   -6.8    24.2
 06 FEB 13  44:09:00:00     347    2.6      14   -0.9      243.5   74.7  -15.1  146.2   -6.8    23.7
 06 FEB 13  44:10:00:00     346    2.7      14   -1.9      243.6   74.6  -15.1  146.2   -6.8    23.1
 06 FEB 13  44:11:00:00     347    3.2      13   -1.9      243.6   74.5  -15.2  146.2   -6.8    22.6
 06 FEB 13  44:12:00:00     347    4.5      13   -2.8      243.7   74.4  -15.2  146.2   -6.8    22.0
 06 FEB 13  44:13:00:00     346    5.4      14   -4.0      243.7   74.3  -15.2  146.2   -6.8    21.5
 06 FEB 13  44:14:00:00     345    5.3      17   -4.6      243.8   74.2  -15.2  146.2   -6.8    20.9
 06 FEB 13  44:15:00:00     343    5.1      18   -4.7      243.8   74.0  -15.2  146.2   -6.8    20.4
 06 FEB 13  44:16:00:00     345    7.4      18   -6.4      243.9   73.9  -15.3  146.2   -6.8    19.8
 06 FEB 13  44:17:00:00     343    6.5      18   -6.3      243.9   73.8  -15.3  146.2   -6.8    19.3
 06 FEB 13  44:18:00:00     344    7.3      17   -6.1      244.0   73.7  -15.3  146.2   -6.8    18.7
 06 FEB 13  44:19:00:00     343    4.9      17   -4.5      244.0   73.6  -15.3  146.2   -6.8    18.2
 06 FEB 13  44:20:00:00     344    4.9      18   -4.1      244.0   73.5  -15.3  146.2   -6.8    17.6
 06 FEB 13  44:21:00:00     348    7.9      19   -5.1      244.1   73.4  -15.3  146.2   -6.8    17.1
 06 FEB 13  44:22:00:00     350    7.3      19   -4.6      244.1   73.3  -15.4  146.2   -6.8    16.5
 06 FEB 13  44:23:00:00     351    6.5      20   -3.8      244.2   73.2  -15.4  146.2   -6.8    16.0
 06 FEB 14  45:00:00:00     354    8.0      20   -4.5      244.2   73.1  -15.4  146.2   -6.8    15.4
 06 FEB 14  45:01:00:00     352    9.3      20   -5.0      244.3   72.9  -15.4  146.2   -6.8    14.9
 06 FEB 14  45:02:00:00     351    8.3      20   -4.4      244.3   72.8  -15.4  146.2   -6.8    14.3
 06 FEB 14  45:03:00:00     344    7.2      20   -5.1      244.4   72.7  -15.5  146.2   -6.8    13.8
 06 FEB 14  45:04:00:00     342    7.2      20   -5.6      244.4   72.6  -15.5  146.2   -6.8    13.2
 06 FEB 14  45:05:00:00     336    5.0      20   -6.6      244.5   72.5  -15.5  146.2   -6.8    12.7
 06 FEB 14  45:06:00:00     334    2.8      21   -5.2      244.5   72.4  -15.5  146.2   -6.8    12.1
 06 FEB 14  45:07:00:00     336    2.7      23   -5.3      244.6   72.3  -15.5  146.2   -6.8    11.6
 06 FEB 14  45:08:00:00     336    2.1      24   -5.5      244.6   72.2  -15.6  146.2   -6.8    11.0
 06 FEB 14  45:09:00:00     325    2.0      21   -2.7      244.7   72.0  -15.6  146.2   -6.8    10.5
 06 FEB 14  45:10:00:00     316    3.4      19   -4.2      244.7   71.9  -15.6  146.2   -6.8     9.9
 06 FEB 14  45:11:00:00     335    3.3      24   -6.5      244.8   71.8  -15.6  146.2   -6.8     9.4
 06 FEB 14  45:12:00:00     329    3.8      22   -6.3      244.8   71.7  -15.6  146.2   -6.8     8.8
 06 FEB 14  45:13:00:00     333    3.8      21   -4.3      244.9   71.6  -15.6  146.2   -6.8     8.3
 06 FEB 14  45:14:00:00     336    5.5      20   -6.8      244.9   71.5  -15.7  146.2   -6.8     7.7
 06 FEB 14  45:15:00:00     329    3.3      19   -7.5      245.0   71.4  -15.7  146.2   -6.8     7.2
 06 FEB 14  45:16:00:00     306    3.1      19   -2.2      245.0   71.2  -15.7  146.2   -6.8     6.6
 06 FEB 14  45:17:00:00     316    2.9      20   -2.2      245.1   71.1  -15.7  146.2   -6.8     6.1
 06 FEB 14  45:18:00:00     311    4.3      19   -2.8      245.1   71.0  -15.7  146.2   -6.8     5.5
 06 FEB 14  45:19:00:00     332    5.7      19   -4.8      245.2   70.9  -15.8  146.2   -6.9     5.0
 06 FEB 14  45:20:00:00     344    3.9      18   -2.5      245.2   70.8  -15.8  146.2   -6.9     4.4
 06 FEB 14  45:21:00:00     347    4.1      16   -1.9      245.3   70.7  -15.8  146.2   -6.9     3.9
 06 FEB 14  45:22:00:00     347    5.6      18   -2.2      245.3   70.6  -15.8  146.2   -6.9     3.3
 06 FEB 14  45:23:00:00     352    5.2      20   -1.5      245.4   70.4  -15.8  146.2   -6.9     2.8
 06 FEB 15  46:00:00:00     351    6.7      20   -2.8      245.4   70.3  -15.8  146.2   -6.9     2.2
 06 FEB 15  46:01:00:00     353    6.2      21   -1.3      245.5   70.2  -15.9  146.2   -6.9     1.7
 06 FEB 15  46:02:00:00     352    6.0      19   -0.8      245.5   70.1  -15.9  146.2   -6.9     1.2
 06 FEB 15  46:03:00:00     359    7.7      21   -0.6      245.6   70.0  -15.9  146.2   -6.9     0.6
 06 FEB 15  46:04:00:00     364    7.7      23   -1.8      245.6   69.9  -15.9  146.2   -6.9     0.1
 06 FEB 15  46:05:00:00     374    8.4      25   -1.3      245.7   69.8  -15.9  146.2   -6.9   359.5
 06 FEB 15  46:06:00:00     378    8.5      25    0.3      245.7   69.6  -16.0  146.2   -6.9   359.0